SBCZ/CZS METAR and TAF weather

Enter ICAO airport designator
Station Type Date Time Source
SBCZ METAR 2020/01/17 14:00 UTC NOAA

SBCZ 171400Z 36004KT 9999 SCT017 BKN100 26/24 Q1016


Station Type Date Time Source
SBCZ Decoded METAR 2020/01/17 14:00 UTC NOAA

Cruzeiro Do Sul, Brazil (SBCZ) 07-38S 072-40W
Jan 17, 2020 - 09:00 AM EST / 2020.01.17 1400 UTC
Wind: from the N (360 degrees) at 5 MPH (4 KT):0
Visibility: greater than 7 mile(s):0
Sky conditions: mostly cloudy
Temperature: 78 F (26 C)
Dew Point: 75 F (24 C)
Relative Humidity: 88%
Pressure (altimeter): 30.00 in. Hg (1016 hPa)
ob: SBCZ 171400Z 36004KT 9999 SCT017 BKN100 26/24 Q1016
cycle: 14

Station Type Date Time Source
SBCZ TAF 2019/09/19 12:09 UTC NOAA

TAF SBCZ 190900Z 1912/2012 27005KT 9999 FEW020 FEW025TCU TX34/1919Z TN23/2006Z PROB30
TEMPO 1912/1916 4000 TSRA BKN020 FEW025CB
BECMG 1916/1918 27005KT
BECMG 1923/2001 00000KT CAVOK PROB30 2006/2012 4000 BR
RMK PGZ

Example: see airport list